createdAt,value
2018-04-24T00:01:20.804Z,5.30
2018-04-24T00:03:48.006Z,5.40
2018-04-24T00:06:14.434Z,5.60
2018-04-24T00:08:40.680Z,5.53
2018-04-24T00:11:07.109Z,4.93
2018-04-24T00:13:33.627Z,5.33
2018-04-24T00:15:59.872Z,7.17
2018-04-24T00:18:26.152Z,4.73
2018-04-24T00:20:52.529Z,5.33
2018-04-24T00:23:18.803Z,6.00
2018-04-24T00:25:45.967Z,5.23
2018-04-24T00:28:12.310Z,4.90
2018-04-24T00:30:38.538Z,4.93
2018-04-24T00:33:04.719Z,4.87
2018-04-24T00:35:31.732Z,4.93
2018-04-24T00:37:58.066Z,8.23
2018-04-24T00:40:24.338Z,5.70
2018-04-24T00:42:51.355Z,5.60
2018-04-24T00:45:17.627Z,4.63
2018-04-24T00:47:43.941Z,5.37
2018-04-24T00:50:10.988Z,4.90
2018-04-24T00:52:37.378Z,5.20
2018-04-24T00:55:03.619Z,3.93
2018-04-24T00:57:29.812Z,5.57
2018-04-24T00:59:56.037Z,4.87
2018-04-24T01:02:22.334Z,5.20
2018-04-24T01:04:48.827Z,4.97
2018-04-24T01:07:15.063Z,5.70
2018-04-24T01:09:42.070Z,4.87
2018-04-24T01:12:08.331Z,5.10
2018-04-24T01:14:36.126Z,5.80
2018-04-24T01:17:03.145Z,5.63
2018-04-24T01:19:30.867Z,5.77
2018-04-24T01:21:57.202Z,5.80
2018-04-24T01:24:23.421Z,5.80
2018-04-24T01:26:49.617Z,6.03
2018-04-24T01:29:16.631Z,7.43
2018-04-24T01:31:43.048Z,6.53
2018-04-24T01:34:09.240Z,6.20
2018-04-24T01:36:36.546Z,5.50
2018-04-24T01:39:05.016Z,6.03
2018-04-24T01:41:31.990Z,6.10
2018-04-24T01:43:58.945Z,6.97
2018-04-24T01:46:25.987Z,6.17
2018-04-24T01:48:52.897Z,6.03
2018-04-24T01:51:19.881Z,5.33
2018-04-24T01:53:46.204Z,6.73
2018-04-24T01:56:28.201Z,6.57
2018-04-24T01:58:55.128Z,7.13
2018-04-24T02:01:21.358Z,6.97
2018-04-24T02:03:48.581Z,6.30
2018-04-24T02:06:14.769Z,6.73
2018-04-24T02:08:41.013Z,6.90
2018-04-24T02:11:07.359Z,6.00
2018-04-24T02:13:34.095Z,7.40
2018-04-24T02:16:00.447Z,6.87
2018-04-24T02:18:26.690Z,6.90
2018-04-24T02:20:53.754Z,6.67
2018-04-24T02:23:20.067Z,7.47
2018-04-24T02:25:46.972Z,7.33
2018-04-24T02:28:13.157Z,7.00
2018-04-24T02:30:39.486Z,7.63
2018-04-24T02:33:05.819Z,7.37
2018-04-24T02:35:32.096Z,7.60
2018-04-24T02:37:58.340Z,9.27
2018-04-24T02:40:24.741Z,8.47
2018-04-24T02:42:51.801Z,7.07
2018-04-24T02:45:18.042Z,7.73
2018-04-24T02:47:44.309Z,7.67
2018-04-24T02:50:10.721Z,9.10
2018-04-24T02:52:38.152Z,7.33
2018-04-24T02:55:04.463Z,8.50
2018-04-24T02:57:30.729Z,7.33
2018-04-24T02:59:57.749Z,7.73
2018-04-24T03:02:23.908Z,8.10
2018-04-24T03:04:50.834Z,8.10
2018-04-24T03:07:17.154Z,6.80
2018-04-24T03:09:43.464Z,7.00
2018-04-24T03:12:09.743Z,6.83
2018-04-24T03:14:36.022Z,6.50
2018-04-24T03:17:02.270Z,6.30
2018-04-24T03:19:28.469Z,7.40
2018-04-24T03:21:54.734Z,7.20
2018-04-24T03:24:21.664Z,7.00
2018-04-24T03:26:49.511Z,10.17
2018-04-24T03:29:15.854Z,6.77
2018-04-24T03:31:42.940Z,7.40
2018-04-24T03:34:09.149Z,6.40
2018-04-24T03:36:36.137Z,6.50
2018-04-24T03:39:02.566Z,7.37
2018-04-24T03:41:28.872Z,7.23
2018-04-24T03:43:55.167Z,8.43
2018-04-24T03:46:22.212Z,7.60
2018-04-24T03:48:49.135Z,7.47
2018-04-24T03:51:15.525Z,6.70
2018-04-24T03:53:41.857Z,7.10
2018-04-24T03:56:08.448Z,6.73
2018-04-24T03:58:35.449Z,7.87
2018-04-24T04:01:01.815Z,7.67
2018-04-24T04:03:27.976Z,7.97
2018-04-24T04:05:54.208Z,8.17
2018-04-24T04:08:21.239Z,7.43
2018-04-24T04:10:48.297Z,7.60
2018-04-24T04:13:15.522Z,7.40
2018-04-24T04:15:42.630Z,7.20
2018-04-24T04:18:21.325Z,7.37
2018-04-24T04:21:00.011Z,8.23
2018-04-24T04:23:40.276Z,7.70
2018-04-24T04:26:07.434Z,7.67
2018-04-24T04:28:34.576Z,7.80
2018-04-24T04:31:01.706Z,8.37
2018-04-24T04:33:29.363Z,7.80
2018-04-24T04:35:55.620Z,7.10
2018-04-24T04:38:22.677Z,7.60
2018-04-24T04:40:49.151Z,7.83
2018-04-24T04:43:15.392Z,7.80
2018-04-24T04:45:41.693Z,11.80
2018-04-24T04:48:07.969Z,8.50
2018-04-24T04:50:35.195Z,10.80
2018-04-24T04:53:01.475Z,8.40
2018-04-24T04:55:27.729Z,8.90
2018-04-24T04:57:54.020Z,7.50
2018-04-24T05:00:21.202Z,13.83
2018-04-24T05:02:47.411Z,9.23
2018-04-24T05:05:13.873Z,12.20
2018-04-24T05:07:40.165Z,10.37
2018-04-24T05:10:06.633Z,13.10
2018-04-24T05:12:33.054Z,25.83
2018-04-24T05:14:59.372Z,11.87
2018-04-24T05:17:25.688Z,10.40
2018-04-24T05:19:52.031Z,12.23
2018-04-24T05:22:18.405Z,10.03
2018-04-24T05:24:46.112Z,11.17
2018-04-24T05:27:12.445Z,12.80
2018-04-24T05:29:38.829Z,10.27
2018-04-24T05:32:05.159Z,12.10
2018-04-24T05:34:31.393Z,13.10
2018-04-24T05:36:57.647Z,11.77
2018-04-24T05:39:24.956Z,12.83
2018-04-24T05:41:51.159Z,15.10
2018-04-24T05:44:17.622Z,13.57
2018-04-24T05:46:43.949Z,14.53
2018-04-24T05:49:10.136Z,19.03
2018-04-24T05:51:36.417Z,18.10
2018-04-24T05:54:03.646Z,7.77
2018-04-24T05:56:30.287Z,12.57
2018-04-24T05:58:56.615Z,11.77
2018-04-24T06:01:23.160Z,16.70
2018-04-24T06:03:50.966Z,16.90
2018-04-24T06:06:17.293Z,14.33
2018-04-24T06:08:43.732Z,5.33
2018-04-24T06:11:10.695Z,9.27
2018-04-24T06:13:37.788Z,5.17
2018-04-24T06:16:04.092Z,7.20
2018-04-24T06:18:30.634Z,6.97
2018-04-24T06:20:56.849Z,3.80
2018-04-24T06:23:22.976Z,7.23
2018-04-24T06:25:49.243Z,4.47
2018-04-24T06:28:15.802Z,3.57
2018-04-24T06:30:42.128Z,7.20
2018-04-24T06:33:08.362Z,4.70
2018-04-24T06:35:34.535Z,4.03
2018-04-24T06:38:00.849Z,4.50
2018-04-24T06:40:27.125Z,4.00
2018-04-24T06:42:54.622Z,3.23
2018-04-24T06:45:20.889Z,2.93
2018-04-24T06:47:47.164Z,3.03
2018-04-24T06:50:13.452Z,4.00
2018-04-24T06:52:40.922Z,5.90
2018-04-24T06:55:08.117Z,6.77
2018-04-24T06:57:35.261Z,5.70
2018-04-24T07:00:01.821Z,5.57
2018-04-24T07:02:28.350Z,5.23
2018-04-24T07:04:54.962Z,9.97
2018-04-24T07:07:21.212Z,4.87
2018-04-24T07:09:47.595Z,5.50
2018-04-24T07:12:13.980Z,4.37
2018-04-24T07:14:40.218Z,3.03
2018-04-24T07:17:06.465Z,3.97
2018-04-24T07:19:33.457Z,3.60
2018-04-24T07:22:00.441Z,5.00
2018-04-24T07:24:26.665Z,3.93
2018-04-24T07:26:53.078Z,4.73
2018-04-24T07:29:19.280Z,3.97
2018-04-24T07:31:45.540Z,6.10
2018-04-24T07:34:11.839Z,4.23
2018-04-24T07:36:38.190Z,7.53
2018-04-24T07:39:05.516Z,4.03
2018-04-24T07:41:31.810Z,7.63
2018-04-24T07:43:58.805Z,3.50
2018-04-24T07:46:25.003Z,3.50
2018-04-24T07:48:51.356Z,4.57
2018-04-24T07:51:17.746Z,4.87
2018-04-24T07:53:44.860Z,3.83
2018-04-24T07:56:11.288Z,4.10
2018-04-24T07:58:39.148Z,3.60
2018-04-24T08:01:05.445Z,27.97
2018-04-24T08:03:31.683Z,3.43
2018-04-24T08:05:58.020Z,5.90
2018-04-24T08:08:24.265Z,6.43
2018-04-24T08:10:50.607Z,7.47
2018-04-24T08:13:16.890Z,2.97
2018-04-24T08:15:43.193Z,4.40
2018-04-24T08:18:10.167Z,6.03
2018-04-24T08:20:36.464Z,3.00
2018-04-24T08:23:03.571Z,4.43
2018-04-24T08:25:29.891Z,3.63
2018-04-24T08:27:56.274Z,6.53
2018-04-24T08:30:22.585Z,3.03
2018-04-24T08:32:49.613Z,2.90
2018-04-24T08:35:16.016Z,3.53
2018-04-24T08:37:42.351Z,2.40
2018-04-24T08:40:08.903Z,3.90
2018-04-24T08:42:35.691Z,6.03
2018-04-24T08:45:02.640Z,5.20
2018-04-24T08:47:28.884Z,5.17
2018-04-24T08:49:55.076Z,3.13
2018-04-24T08:52:22.078Z,13.23
2018-04-24T08:54:48.242Z,2.90
2018-04-24T08:57:15.301Z,3.70
2018-04-24T08:59:42.261Z,3.77
2018-04-24T09:02:08.555Z,2.63
2018-04-24T09:04:34.817Z,3.70
2018-04-24T09:07:01.138Z,4.90
2018-04-24T09:09:28.127Z,3.10
2018-04-24T09:11:54.447Z,3.90
2018-04-24T09:14:20.850Z,2.80
2018-04-24T09:16:47.084Z,4.73
2018-04-24T09:19:13.406Z,3.17
2018-04-24T09:21:39.785Z,3.37
2018-04-24T09:24:06.112Z,13.23
2018-04-24T09:26:32.394Z,3.17
2018-04-24T09:28:58.660Z,5.60
2018-04-24T09:31:31.167Z,2.53
2018-04-24T09:33:57.485Z,2.50
2018-04-24T09:36:23.800Z,6.10
2018-04-24T09:38:50.912Z,4.10
2018-04-24T09:41:18.307Z,2.10
2018-04-24T09:43:44.606Z,2.93
2018-04-24T09:46:11.734Z,2.03
2018-04-24T09:48:38.496Z,2.20
2018-04-24T09:51:04.992Z,3.67
2018-04-24T09:53:31.971Z,2.67
2018-04-24T09:55:58.293Z,3.90
2018-04-24T09:58:24.780Z,1.83
2018-04-24T10:00:51.959Z,3.63
2018-04-24T10:03:19.173Z,7.00
2018-04-24T10:05:45.626Z,2.10
2018-04-24T10:08:13.017Z,6.83
2018-04-24T10:10:39.945Z,5.60
2018-04-24T10:13:06.391Z,4.70
2018-04-24T10:15:32.665Z,5.07
2018-04-24T10:17:58.947Z,1.70
2018-04-24T10:20:25.353Z,1.93
2018-04-24T10:22:53.259Z,1.80
2018-04-24T10:25:20.159Z,1.60
2018-04-24T10:27:47.154Z,1.40
2018-04-24T10:30:13.477Z,1.20
2018-04-24T10:32:39.836Z,1.90
2018-04-24T10:35:06.059Z,4.47
2018-04-24T10:37:32.615Z,2.63
2018-04-24T10:39:59.754Z,3.90
2018-04-24T10:42:26.701Z,5.73
2018-04-24T10:44:52.957Z,1.60
2018-04-24T10:47:19.961Z,3.37
2018-04-24T10:49:46.231Z,4.33
2018-04-24T10:52:13.271Z,1.20
2018-04-24T10:54:40.322Z,3.70
2018-04-24T10:57:07.439Z,1.40
2018-04-24T10:59:33.976Z,2.50
2018-04-24T11:02:00.398Z,1.10
2018-04-24T11:04:26.668Z,1.77
2018-04-24T11:06:53.778Z,1.10
2018-04-24T11:09:20.181Z,1.30
2018-04-24T11:11:46.754Z,3.63
2018-04-24T11:14:13.798Z,2.40
2018-04-24T11:16:41.515Z,1.50
2018-04-24T11:19:07.876Z,1.80
2018-04-24T11:21:35.134Z,1.27
2018-04-24T11:24:01.667Z,2.07
2018-04-24T11:26:28.054Z,2.63
2018-04-24T11:28:54.399Z,3.83
2018-04-24T11:31:20.825Z,1.57
2018-04-24T11:33:47.055Z,2.90
2018-04-24T11:36:13.280Z,1.00
2018-04-24T11:38:39.594Z,7.67
2018-04-24T11:41:05.908Z,1.20
2018-04-24T11:43:33.065Z,1.57
2018-04-24T11:46:00.109Z,1.50
2018-04-24T11:48:27.349Z,1.80
2018-04-24T11:50:54.420Z,3.20
2018-04-24T11:53:20.602Z,3.30
2018-04-24T11:55:46.779Z,5.20
2018-04-24T11:58:13.045Z,3.20
2018-04-24T12:00:39.306Z,1.53
2018-04-24T12:03:05.611Z,1.33
2018-04-24T12:05:32.059Z,2.93
2018-04-24T12:07:59.008Z,1.47
2018-04-24T12:10:25.414Z,5.27
2018-04-24T12:12:51.663Z,1.67
2018-04-24T12:15:18.087Z,5.10
2018-04-24T12:17:44.405Z,1.60
2018-04-24T12:20:10.935Z,2.40
2018-04-24T12:22:38.149Z,1.53
2018-04-24T12:25:04.530Z,3.77
2018-04-24T12:27:30.926Z,2.73
2018-04-24T12:29:58.715Z,2.60
2018-04-24T12:32:24.975Z,2.30
2018-04-24T12:34:52.237Z,1.27
2018-04-24T12:37:19.255Z,5.57
2018-04-24T12:39:46.057Z,5.67
2018-04-24T12:42:12.408Z,4.57
2018-04-24T12:44:38.646Z,1.70
2018-04-24T12:47:05.321Z,1.67
2018-04-24T12:49:32.511Z,3.27
2018-04-24T12:51:58.873Z,1.97
2018-04-24T12:54:25.397Z,1.33
2018-04-24T12:56:51.728Z,1.27
2018-04-24T12:59:18.114Z,1.90
2018-04-24T13:01:44.490Z,1.20
2018-04-24T13:04:10.946Z,1.00
2018-04-24T13:06:37.314Z,1.63
2018-04-24T13:09:03.681Z,2.73
2018-04-24T13:11:30.023Z,2.87
2018-04-24T13:13:56.319Z,1.13
2018-04-24T13:16:22.491Z,23.07
2018-04-24T13:18:48.859Z,1.53
2018-04-24T13:21:15.252Z,2.60
2018-04-24T13:23:41.503Z,3.23
2018-04-24T13:26:08.570Z,1.67
2018-04-24T13:28:34.936Z,5.37
2018-04-24T13:31:01.271Z,11.33
2018-04-24T13:33:34.534Z,2.10
2018-04-24T13:36:00.735Z,7.07
2018-04-24T13:38:26.917Z,6.50
2018-04-24T13:40:53.142Z,3.67
2018-04-24T13:43:19.365Z,3.80
2018-04-24T13:45:45.826Z,1.80
2018-04-24T13:48:12.351Z,4.87
2018-04-24T13:50:38.574Z,1.80
2018-04-24T13:53:04.966Z,4.27
2018-04-24T13:55:31.244Z,9.47
2018-04-24T13:57:57.502Z,48.07
2018-04-24T14:00:23.860Z,4.93
2018-04-24T14:02:50.312Z,8.90
2018-04-24T14:05:16.563Z,3.40
2018-04-24T14:07:42.776Z,1.40
2018-04-24T14:10:09.890Z,6.40
2018-04-24T14:12:36.096Z,2.77
2018-04-24T14:15:02.345Z,1.90
2018-04-24T14:17:28.628Z,3.53
2018-04-24T14:19:54.831Z,1.53
2018-04-24T14:22:21.066Z,1.00
2018-04-24T14:24:47.538Z,1.90
2018-04-24T14:27:13.813Z,3.60
2018-04-24T14:29:40.478Z,1.50
2018-04-24T14:32:06.833Z,1.73
2018-04-24T14:34:33.042Z,2.73
2018-04-24T14:37:00.127Z,2.87
2018-04-24T14:39:26.442Z,2.77
2018-04-24T14:41:52.831Z,1.47
2018-04-24T14:44:19.022Z,1.57
2018-04-24T14:46:45.242Z,1.30
2018-04-24T14:49:11.413Z,2.30
2018-04-24T14:51:37.890Z,1.40
2018-04-24T14:54:04.886Z,1.50
2018-04-24T14:56:31.876Z,2.70
2018-04-24T14:58:58.152Z,1.73
2018-04-24T15:01:24.427Z,3.70
2018-04-24T15:03:50.779Z,4.67
2018-04-24T15:06:17.180Z,9.30
2018-04-24T15:08:44.345Z,9.63
2018-04-24T15:11:10.627Z,5.63
2018-04-24T15:13:37.160Z,1.90
2018-04-24T15:16:03.343Z,1.70
2018-04-24T15:18:29.715Z,1.80
2018-04-24T15:20:56.100Z,3.13
2018-04-24T15:23:22.298Z,1.80
2018-04-24T15:25:50.213Z,1.53
2018-04-24T15:28:16.744Z,1.57
2018-04-24T15:30:43.142Z,1.20
2018-04-24T15:33:10.147Z,3.47
2018-04-24T15:35:36.414Z,1.50
2018-04-24T15:38:03.479Z,5.13
2018-04-24T15:40:29.874Z,1.80
2018-04-24T15:42:56.158Z,1.57
2018-04-24T15:45:22.426Z,1.40
2018-04-24T15:47:48.754Z,2.70
2018-04-24T15:50:15.054Z,2.73
2018-04-24T15:52:41.276Z,3.30
2018-04-24T15:55:08.274Z,4.57
2018-04-24T15:57:35.430Z,4.37
2018-04-24T16:00:02.563Z,4.20
2018-04-24T16:02:29.575Z,2.87
2018-04-24T16:04:55.868Z,3.57
2018-04-24T16:07:22.147Z,4.73
2018-04-24T16:09:48.669Z,4.70
2018-04-24T16:12:14.903Z,2.20
2018-04-24T16:14:41.225Z,2.63
2018-04-24T16:17:07.607Z,2.03
2018-04-24T16:19:41.139Z,1.87
2018-04-24T16:22:08.243Z,1.53
2018-04-24T16:24:35.176Z,2.67
2018-04-24T16:27:01.541Z,5.90
2018-04-24T16:29:27.698Z,1.77
2018-04-24T16:31:54.152Z,4.73
2018-04-24T16:34:20.580Z,5.10
2018-04-24T16:36:46.953Z,2.80
2018-04-24T16:39:13.160Z,2.50
2018-04-24T16:41:41.604Z,4.30
2018-04-24T16:44:07.909Z,5.07
2018-04-24T16:46:34.725Z,1.70
2018-04-24T16:49:01.152Z,2.07
2018-04-24T16:51:28.323Z,2.00
2018-04-24T16:53:54.824Z,2.50
2018-04-24T16:56:21.992Z,1.97
2018-04-24T16:58:49.408Z,2.67
2018-04-24T17:01:15.763Z,2.83
2018-04-24T17:03:42.771Z,2.30
2018-04-24T17:06:09.094Z,8.73
2018-04-24T17:08:36.049Z,3.20
2018-04-24T17:11:02.494Z,2.83
2018-04-24T17:13:28.807Z,2.10
2018-04-24T17:15:55.262Z,2.47
2018-04-24T17:18:21.582Z,6.53
2018-04-24T17:20:48.016Z,2.60
2018-04-24T17:23:14.265Z,3.57
2018-04-24T17:25:40.526Z,4.30
2018-04-24T17:28:06.922Z,4.80
2018-04-24T17:30:33.229Z,6.30
2018-04-24T17:32:59.758Z,6.37
2018-04-24T17:35:27.329Z,2.70
2018-04-24T17:37:53.612Z,4.77
2018-04-24T17:40:20.022Z,3.30
2018-04-24T17:42:47.116Z,2.53
2018-04-24T17:45:13.449Z,2.10
2018-04-24T17:47:39.741Z,4.80
2018-04-24T17:50:06.169Z,2.30
2018-04-24T17:52:32.628Z,2.83
2018-04-24T17:54:59.039Z,5.30
2018-04-24T17:57:25.578Z,10.50
2018-04-24T17:59:52.005Z,27.30
2018-04-24T18:02:18.274Z,5.43
2018-04-24T18:04:44.732Z,8.97
2018-04-24T18:07:11.203Z,3.60
2018-04-24T18:09:37.455Z,2.50
2018-04-24T18:12:03.927Z,4.27
2018-04-24T18:14:30.242Z,3.40
2018-04-24T18:16:56.500Z,2.80
2018-04-24T18:19:23.671Z,1.70
2018-04-24T18:21:49.950Z,3.17
2018-04-24T18:24:16.253Z,3.03
2018-04-24T18:26:42.713Z,6.70
2018-04-24T18:29:13.117Z,2.00
2018-04-24T18:31:39.486Z,2.63
2018-04-24T18:34:09.903Z,3.80
2018-04-24T18:36:37.159Z,2.63
2018-04-24T18:39:03.732Z,2.37
2018-04-24T18:41:30.315Z,1.73
2018-04-24T18:43:56.675Z,4.23
2018-04-24T18:46:23.741Z,2.83
2018-04-24T18:48:50.101Z,7.67
2018-04-24T18:51:16.343Z,4.33
2018-04-24T18:53:42.632Z,2.57
2018-04-24T18:56:09.418Z,4.70
2018-04-24T18:58:35.762Z,12.70
2018-04-24T19:01:02.146Z,13.13
2018-04-24T19:03:28.470Z,8.87
2018-04-24T19:05:54.752Z,27.23
2018-04-24T19:08:21.131Z,48.73
2018-04-24T19:10:48.347Z,67.87
2018-04-24T19:13:15.389Z,93.80
2018-04-24T19:15:41.664Z,83.63
2018-04-24T19:18:08.034Z,50.37
2018-04-24T19:20:34.351Z,69.17
2018-04-24T19:23:00.857Z,66.23
2018-04-24T19:25:33.340Z,70.23
2018-04-24T19:28:00.017Z,51.23
2018-04-24T19:30:26.541Z,37.57
2018-04-24T19:32:52.921Z,33.63
2018-04-24T19:35:19.241Z,32.80
2018-04-24T19:37:45.651Z,31.83
2018-04-24T19:40:19.122Z,19.60
2018-04-24T19:42:45.456Z,30.33
2018-04-24T19:45:12.849Z,20.07
2018-04-24T19:47:40.304Z,15.93
2018-04-24T19:50:13.524Z,13.00
2018-04-24T19:52:39.869Z,11.40
2018-04-24T19:55:12.284Z,9.43
2018-04-24T19:57:38.521Z,9.43
2018-04-24T20:00:06.458Z,6.40
2018-04-24T20:02:32.794Z,10.60
2018-04-24T20:04:59.019Z,5.53
2018-04-24T20:07:26.930Z,12.83
2018-04-24T20:09:53.221Z,9.93
2018-04-24T20:12:20.412Z,9.20
2018-04-24T20:14:46.786Z,3.33
2018-04-24T20:17:13.067Z,9.90
2018-04-24T20:19:39.306Z,10.50
2018-04-24T20:22:05.672Z,3.80
2018-04-24T20:24:31.866Z,6.40
2018-04-24T20:26:58.113Z,3.87
2018-04-24T20:29:24.798Z,9.03
2018-04-24T20:31:51.865Z,5.20
2018-04-24T20:34:18.085Z,3.87
2018-04-24T20:36:44.538Z,3.07
2018-04-24T20:39:11.068Z,5.70
2018-04-24T20:41:37.273Z,4.57
2018-04-24T20:44:04.303Z,8.20
2018-04-24T20:46:31.331Z,3.47
2018-04-24T20:48:57.633Z,4.70
2018-04-24T20:51:23.982Z,6.53
2018-04-24T20:53:50.280Z,5.87
2018-04-24T20:56:16.653Z,9.30
2018-04-24T20:58:42.904Z,3.13
2018-04-24T21:01:10.073Z,6.00
2018-04-24T21:03:36.327Z,6.73
2018-04-24T21:06:02.686Z,7.47
2018-04-24T21:08:28.995Z,3.83
2018-04-24T21:10:55.558Z,3.17
2018-04-24T21:13:21.753Z,4.17
2018-04-24T21:15:48.098Z,3.73
2018-04-24T21:18:14.397Z,2.30
2018-04-24T21:20:40.653Z,2.93
2018-04-24T21:23:06.978Z,2.60
2018-04-24T21:25:33.387Z,1.60
2018-04-24T21:27:59.749Z,1.50
2018-04-24T21:30:26.994Z,5.30
2018-04-24T21:32:53.266Z,2.23
2018-04-24T21:35:20.414Z,2.00
2018-04-24T21:37:47.405Z,1.77
2018-04-24T21:40:14.151Z,3.17
2018-04-24T21:42:40.389Z,2.53
2018-04-24T21:45:06.736Z,2.20
2018-04-24T21:47:33.725Z,2.50
2018-04-24T21:49:59.905Z,2.60
2018-04-24T21:52:26.791Z,9.93
2018-04-24T21:54:53.106Z,4.90
2018-04-24T21:57:19.492Z,1.67
2018-04-24T21:59:45.823Z,3.20
2018-04-24T22:02:12.096Z,3.07
2018-04-24T22:04:38.711Z,1.40
2018-04-24T22:07:04.959Z,2.30
2018-04-24T22:09:31.275Z,6.03
2018-04-24T22:11:58.338Z,4.60
2018-04-24T22:14:25.249Z,2.80
2018-04-24T22:16:51.507Z,3.50
2018-04-24T22:19:32.947Z,1.77
2018-04-24T22:21:59.369Z,4.27
2018-04-24T22:24:25.595Z,2.07
2018-04-24T22:26:52.098Z,9.53
2018-04-24T22:29:18.583Z,3.50
2018-04-24T22:31:44.898Z,2.83
2018-04-24T22:34:11.100Z,2.00
2018-04-24T22:36:37.271Z,1.77
2018-04-24T22:39:03.799Z,2.13
2018-04-24T22:41:30.178Z,3.30
2018-04-24T22:43:56.447Z,5.33
2018-04-24T22:46:22.737Z,1.73
2018-04-24T22:48:49.048Z,9.80
2018-04-24T22:51:15.401Z,1.60
2018-04-24T22:53:41.685Z,1.53
2018-04-24T22:56:07.933Z,1.53
2018-04-24T22:58:34.740Z,7.40
2018-04-24T23:01:02.558Z,3.00
2018-04-24T23:03:29.011Z,1.10
2018-04-24T23:05:55.376Z,1.40
2018-04-24T23:08:21.906Z,2.27
2018-04-24T23:11:01.922Z,1.67
2018-04-24T23:13:40.724Z,4.70
2018-04-24T23:16:19.334Z,2.00
2018-04-24T23:18:57.991Z,3.77
2018-04-24T23:21:24.063Z,1.83
2018-04-24T23:23:51.099Z,2.03
2018-04-24T23:26:18.336Z,2.23
2018-04-24T23:28:44.598Z,5.47
2018-04-24T23:31:11.761Z,12.97
2018-04-24T23:33:37.966Z,3.90
2018-04-24T23:36:04.952Z,3.60
2018-04-24T23:38:31.253Z,2.57
2018-04-24T23:40:57.592Z,1.93
2018-04-24T23:43:23.957Z,2.13
2018-04-24T23:45:50.333Z,3.83
2018-04-24T23:48:17.276Z,9.50
2018-04-24T23:50:44.320Z,2.30
2018-04-24T23:53:11.314Z,3.50
2018-04-24T23:55:37.511Z,5.50
2018-04-24T23:58:03.838Z,8.90
